createdAt,value
2022-09-04T00:00:49.160Z,16.51
2022-09-04T00:01:49.309Z,16.46
2022-09-04T00:02:49.359Z,16.40
2022-09-04T00:03:49.590Z,16.35
2022-09-04T00:04:49.733Z,16.30
2022-09-04T00:05:49.847Z,16.26
2022-09-04T00:06:49.891Z,16.21
2022-09-04T00:07:49.960Z,16.17
2022-09-04T00:08:50.109Z,16.13
2022-09-04T00:09:50.231Z,16.10
2022-09-04T00:10:50.464Z,16.08
2022-09-04T00:11:50.497Z,16.05
2022-09-04T00:12:50.618Z,16.03
2022-09-04T00:13:50.746Z,16.02
2022-09-04T00:14:50.889Z,16.01
2022-09-04T00:15:51.106Z,16.01
2022-09-04T00:16:51.300Z,16.02
2022-09-04T00:17:51.267Z,16.03
2022-09-04T00:18:51.410Z,16.03
2022-09-04T00:19:51.536Z,16.03
2022-09-04T00:20:51.679Z,16.04
2022-09-04T00:21:51.867Z,16.04
2022-09-04T00:22:51.958Z,16.04
2022-09-04T00:23:52.076Z,16.04
2022-09-04T00:24:52.216Z,16.04
2022-09-04T00:25:52.345Z,16.04
2022-09-04T00:26:52.684Z,16.04
2022-09-04T00:27:52.596Z,16.04
2022-09-04T00:28:52.733Z,16.03
2022-09-04T00:29:52.856Z,16.02
2022-09-04T00:30:53.049Z,16.01
2022-09-04T00:31:53.166Z,16.01
2022-09-04T00:32:53.273Z,16.00
2022-09-04T00:33:53.376Z,15.99
2022-09-04T00:34:53.474Z,15.98
2022-09-04T00:35:53.623Z,15.97
2022-09-04T00:36:53.824Z,15.96
2022-09-04T00:37:53.883Z,15.95
2022-09-04T00:38:54.151Z,15.94
2022-09-04T00:39:54.331Z,15.92
2022-09-04T00:40:54.273Z,15.90
2022-09-04T00:41:54.452Z,15.89
2022-09-04T00:42:54.540Z,15.88
2022-09-04T00:43:54.662Z,15.86
2022-09-04T00:44:54.976Z,15.84
2022-09-04T00:45:54.994Z,15.82
2022-09-04T00:46:55.072Z,15.81
2022-09-04T00:47:55.192Z,15.81
2022-09-04T00:48:55.426Z,15.82
2022-09-04T00:49:55.449Z,15.83
2022-09-04T00:50:55.677Z,15.83
2022-09-04T00:51:55.702Z,15.83
2022-09-04T00:52:58.286Z,15.84
2022-09-04T00:53:55.990Z,15.84
2022-09-04T00:54:56.130Z,15.83
2022-09-04T00:55:56.401Z,15.82
2022-09-04T00:56:56.408Z,15.80
2022-09-04T00:57:56.518Z,15.79
2022-09-04T00:58:56.671Z,15.78
2022-09-04T00:59:56.859Z,15.77
2022-09-04T01:00:57.104Z,15.75
2022-09-04T01:01:57.391Z,15.74
2022-09-04T01:02:57.179Z,15.73
2022-09-04T01:03:58.482Z,15.72
2022-09-04T01:04:57.459Z,15.70
2022-09-04T01:05:57.618Z,15.68
2022-09-04T01:06:57.716Z,15.66
2022-09-04T01:07:57.879Z,15.64
2022-09-04T01:08:57.976Z,15.63
2022-09-04T01:09:58.120Z,15.62
2022-09-04T01:10:58.277Z,15.61
2022-09-04T01:11:58.395Z,15.60
2022-09-04T01:12:58.535Z,15.58
2022-09-04T01:13:58.728Z,15.57
2022-09-04T01:14:58.798Z,15.55
2022-09-04T01:15:59.067Z,15.54
2022-09-04T01:16:59.076Z,15.53
2022-09-04T01:17:59.233Z,15.52
2022-09-04T01:18:59.333Z,15.50
2022-09-04T01:19:59.456Z,15.48
2022-09-04T01:20:59.707Z,15.47
2022-09-04T01:21:59.716Z,15.46
2022-09-04T01:22:59.858Z,15.46
2022-09-04T01:24:00.029Z,15.46
2022-09-04T01:25:00.137Z,15.46
2022-09-04T01:26:00.286Z,15.46
2022-09-04T01:27:00.377Z,15.47
2022-09-04T01:28:00.523Z,15.49
2022-09-04T01:29:00.653Z,15.50
2022-09-04T01:30:00.775Z,15.51
2022-09-04T01:31:00.978Z,15.52
2022-09-04T01:32:01.202Z,15.54
2022-09-04T01:33:01.406Z,15.54
2022-09-04T01:34:01.352Z,15.54
2022-09-04T01:35:01.455Z,15.53
2022-09-04T01:36:01.583Z,15.53
2022-09-04T01:37:01.714Z,15.52
2022-09-04T01:38:01.973Z,15.51
2022-09-04T01:39:01.992Z,15.50
2022-09-04T01:40:02.232Z,15.48
2022-09-04T01:41:02.271Z,15.47
2022-09-04T01:42:02.562Z,15.46
2022-09-04T01:43:02.531Z,15.44
2022-09-04T01:44:02.672Z,15.43
2022-09-04T01:45:02.826Z,15.41
2022-09-04T01:46:02.986Z,15.40
2022-09-04T01:47:03.163Z,15.39
2022-09-04T01:48:03.261Z,15.38
2022-09-04T01:49:03.351Z,15.37
2022-09-04T01:50:03.481Z,15.37
2022-09-04T01:51:03.621Z,15.36
2022-09-04T01:52:04.083Z,15.36
2022-09-04T01:53:03.881Z,15.36
2022-09-04T01:54:04.029Z,15.36
2022-09-04T01:55:04.137Z,15.36
2022-09-04T01:56:04.227Z,15.37
2022-09-04T01:57:04.510Z,15.38
2022-09-04T01:58:04.479Z,15.39
2022-09-04T01:59:04.600Z,15.40
2022-09-04T02:00:04.720Z,15.42
2022-09-04T02:01:04.947Z,15.43
2022-09-04T02:02:05.067Z,15.44
2022-09-04T02:03:05.329Z,15.45
2022-09-04T02:04:05.208Z,15.46
2022-09-04T02:05:08.497Z,15.47
2022-09-04T02:06:05.478Z,15.48
2022-09-04T02:07:05.609Z,15.48
2022-09-04T02:08:05.827Z,15.48
2022-09-04T02:09:06.025Z,15.47
2022-09-04T02:10:06.008Z,15.47
2022-09-04T02:11:06.141Z,15.47
2022-09-04T02:12:08.732Z,15.47
2022-09-04T02:13:06.413Z,15.46
2022-09-04T02:14:06.532Z,15.46
2022-09-04T02:15:06.676Z,15.45
2022-09-04T02:16:06.891Z,15.44
2022-09-04T02:17:07.066Z,15.43
2022-09-04T02:18:07.318Z,15.42
2022-09-04T02:19:07.308Z,15.42
2022-09-04T02:20:07.296Z,15.42
2022-09-04T02:21:07.426Z,15.42
2022-09-04T02:22:07.567Z,15.42
2022-09-04T02:23:07.704Z,15.42
2022-09-04T02:24:08.006Z,15.42
2022-09-04T02:25:07.986Z,15.42
2022-09-04T02:26:08.125Z,15.42
2022-09-04T02:27:08.245Z,15.41
2022-09-04T02:28:08.403Z,15.39
2022-09-04T02:29:08.644Z,15.38
2022-09-04T02:30:08.674Z,15.36
2022-09-04T02:31:08.781Z,15.34
2022-09-04T02:32:09.571Z,15.32
2022-09-04T02:33:08.973Z,15.30
2022-09-04T02:34:09.249Z,15.28
2022-09-04T02:35:09.233Z,15.26
2022-09-04T02:36:09.503Z,15.25
2022-09-04T02:37:09.494Z,15.24
2022-09-04T02:38:09.653Z,15.23
2022-09-04T02:39:09.763Z,15.22
2022-09-04T02:40:09.892Z,15.21
2022-09-04T02:41:10.174Z,15.20
2022-09-04T02:42:10.291Z,15.18
2022-09-04T02:43:10.272Z,15.17
2022-09-04T02:44:10.402Z,15.15
2022-09-04T02:45:10.556Z,15.13
2022-09-04T02:46:10.671Z,15.12
2022-09-04T02:47:11.027Z,15.12
2022-09-04T02:48:10.951Z,15.12
2022-09-04T02:49:11.094Z,15.13
2022-09-04T02:50:11.230Z,15.14
2022-09-04T02:51:11.381Z,15.15
2022-09-04T02:52:11.642Z,15.15
2022-09-04T02:53:13.213Z,15.15
2022-09-04T02:54:11.773Z,15.14
2022-09-04T02:55:11.880Z,15.13
2022-09-04T02:56:12.010Z,15.12
2022-09-04T02:57:12.184Z,15.11
2022-09-04T02:58:12.307Z,15.09
2022-09-04T02:59:12.411Z,15.07
2022-09-04T03:00:12.530Z,15.05
2022-09-04T03:01:12.740Z,15.04
2022-09-04T03:02:12.995Z,15.02
2022-09-04T03:03:12.949Z,15.02
2022-09-04T03:04:13.097Z,15.01
2022-09-04T03:05:13.237Z,15.02
2022-09-04T03:06:13.408Z,15.02
2022-09-04T03:07:13.667Z,15.03
2022-09-04T03:08:13.761Z,15.04
2022-09-04T03:09:13.737Z,15.05
2022-09-04T03:10:13.888Z,15.06
2022-09-04T03:11:14.017Z,15.08
2022-09-04T03:12:14.147Z,15.09
2022-09-04T03:13:14.289Z,15.10
2022-09-04T03:14:14.416Z,15.10
2022-09-04T03:15:14.557Z,15.10
2022-09-04T03:16:14.726Z,15.10
2022-09-04T03:17:14.837Z,15.11
2022-09-04T03:18:16.965Z,15.11
2022-09-04T03:19:16.413Z,15.11
2022-09-04T03:20:15.193Z,15.12
2022-09-04T03:21:15.336Z,15.13
2022-09-04T03:22:15.465Z,15.14
2022-09-04T03:23:15.594Z,15.15
2022-09-04T03:24:15.836Z,15.16
2022-09-04T03:25:15.866Z,15.16
2022-09-04T03:26:16.017Z,15.17
2022-09-04T03:27:16.167Z,15.17
2022-09-04T03:28:16.323Z,15.18
2022-09-04T03:29:16.575Z,15.18
2022-09-04T03:30:16.543Z,15.19
2022-09-04T03:31:16.737Z,15.19
2022-09-04T03:32:17.065Z,15.19
2022-09-04T03:33:16.921Z,15.18
2022-09-04T03:34:17.116Z,15.16
2022-09-04T03:35:17.183Z,15.14
2022-09-04T03:36:17.314Z,15.12
2022-09-04T03:37:17.702Z,15.11
2022-09-04T03:38:17.588Z,15.10
2022-09-04T03:39:17.726Z,15.09
2022-09-04T03:40:17.862Z,15.08
2022-09-04T03:41:18.016Z,15.08
2022-09-04T03:42:18.287Z,15.09
2022-09-04T03:43:18.291Z,15.09
2022-09-04T03:44:18.387Z,15.09
2022-09-04T03:45:18.561Z,15.10
2022-09-04T03:46:18.715Z,15.11
2022-09-04T03:47:18.840Z,15.13
2022-09-04T03:48:19.083Z,15.14
2022-09-04T03:49:19.048Z,15.15
2022-09-04T03:50:19.190Z,15.15
2022-09-04T03:51:19.349Z,15.15
2022-09-04T03:52:19.559Z,15.15
2022-09-04T03:53:19.550Z,15.15
2022-09-04T03:54:19.670Z,15.15
2022-09-04T03:55:19.817Z,15.15
2022-09-04T03:56:20.026Z,15.15
2022-09-04T03:57:20.066Z,15.16
2022-09-04T03:58:20.378Z,15.16
2022-09-04T03:59:20.345Z,15.15
2022-09-04T04:00:20.482Z,15.15
2022-09-04T04:01:24.775Z,15.15
2022-09-04T04:02:20.737Z,15.14
2022-09-04T04:03:20.916Z,15.14
2022-09-04T04:04:20.938Z,15.14
2022-09-04T04:05:21.070Z,15.15
2022-09-04T04:06:21.277Z,15.15
2022-09-04T04:07:21.380Z,15.15
2022-09-04T04:08:21.476Z,15.15
2022-09-04T04:09:21.582Z,15.15
2022-09-04T04:10:21.696Z,15.16
2022-09-04T04:11:22.017Z,15.16
2022-09-04T04:12:21.897Z,15.16
2022-09-04T04:13:22.035Z,15.17
2022-09-04T04:14:22.176Z,15.18
2022-09-04T04:15:22.326Z,15.18
2022-09-04T04:16:24.653Z,15.19
2022-09-04T04:17:22.574Z,15.19
2022-09-04T04:18:22.750Z,15.19
2022-09-04T04:19:22.845Z,15.20
2022-09-04T04:20:22.965Z,15.20
2022-09-04T04:21:23.164Z,15.21
2022-09-04T04:22:23.264Z,15.21
2022-09-04T04:23:23.303Z,15.22
2022-09-04T04:24:23.453Z,15.22
2022-09-04T04:25:23.573Z,15.23
2022-09-04T04:26:23.803Z,15.23
2022-09-04T04:27:23.841Z,15.24
2022-09-04T04:28:24.166Z,15.25
2022-09-04T04:29:24.052Z,15.26
2022-09-04T04:30:24.183Z,15.26
2022-09-04T04:31:24.449Z,15.27
2022-09-04T04:32:24.467Z,15.28
2022-09-04T04:33:24.561Z,15.29
2022-09-04T04:34:24.656Z,15.30
2022-09-04T04:35:24.732Z,15.31
2022-09-04T04:36:24.992Z,15.32
2022-09-04T04:37:25.081Z,15.33
2022-09-04T04:38:25.147Z,15.34
2022-09-04T04:39:30.028Z,15.35
2022-09-04T04:40:26.356Z,15.36
2022-09-04T04:41:25.557Z,15.36
2022-09-04T04:42:25.621Z,15.36
2022-09-04T04:43:25.751Z,15.37
2022-09-04T04:44:25.859Z,15.37
2022-09-04T04:45:25.960Z,15.38
2022-09-04T04:46:26.219Z,15.39
2022-09-04T04:47:26.409Z,15.40
2022-09-04T04:48:26.531Z,15.41
2022-09-04T04:49:26.460Z,15.42
2022-09-04T04:50:26.606Z,15.42
2022-09-04T04:51:26.808Z,15.43
2022-09-04T04:52:26.938Z,15.43
2022-09-04T04:53:27.037Z,15.44
2022-09-04T04:54:27.166Z,15.45
2022-09-04T04:55:27.286Z,15.45
2022-09-04T04:56:27.378Z,15.45
2022-09-04T04:57:27.524Z,15.46
2022-09-04T04:58:27.608Z,15.46
2022-09-04T04:59:27.767Z,15.46
2022-09-04T05:00:27.908Z,15.45
2022-09-04T05:01:28.054Z,15.45
2022-09-04T05:02:28.347Z,15.45
2022-09-04T05:03:28.367Z,15.45
2022-09-04T05:04:28.381Z,15.45
2022-09-04T05:05:28.477Z,15.45
2022-09-04T05:06:28.576Z,15.45
2022-09-04T05:07:28.724Z,15.46
2022-09-04T05:08:28.985Z,15.46
2022-09-04T05:09:28.984Z,15.46
2022-09-04T05:10:29.108Z,15.46
2022-09-04T05:11:29.207Z,15.47
2022-09-04T05:12:29.310Z,15.48
2022-09-04T05:13:29.475Z,15.48
2022-09-04T05:14:29.513Z,15.48
2022-09-04T05:15:29.632Z,15.49
2022-09-04T05:16:29.795Z,15.49
2022-09-04T05:17:29.834Z,15.50
2022-09-04T05:18:30.051Z,15.50
2022-09-04T05:19:30.093Z,15.51
2022-09-04T05:20:30.222Z,15.52
2022-09-04T05:21:30.322Z,15.53
2022-09-04T05:22:34.036Z,15.54
2022-09-04T05:23:30.532Z,15.55
2022-09-04T05:24:30.815Z,15.56
2022-09-04T05:25:30.785Z,15.58
2022-09-04T05:26:30.904Z,15.60
2022-09-04T05:27:31.022Z,15.62
2022-09-04T05:28:31.194Z,15.65
2022-09-04T05:29:32.675Z,15.68
2022-09-04T05:30:31.394Z,15.71
2022-09-04T05:31:31.579Z,15.73
2022-09-04T05:32:31.570Z,15.77
2022-09-04T05:33:31.728Z,15.79
2022-09-04T05:34:31.900Z,15.82
2022-09-04T05:35:35.513Z,15.85
2022-09-04T05:36:32.050Z,15.87
2022-09-04T05:37:32.188Z,15.90
2022-09-04T05:38:32.320Z,15.93
2022-09-04T05:39:32.743Z,15.96
2022-09-04T05:40:32.519Z,16.00
2022-09-04T05:41:32.669Z,16.05
2022-09-04T05:42:32.819Z,16.09
2022-09-04T05:43:32.907Z,16.14
2022-09-04T05:44:33.127Z,16.19
2022-09-04T05:45:33.229Z,16.24
2022-09-04T05:46:33.347Z,16.29
2022-09-04T05:47:33.388Z,16.34
2022-09-04T05:48:33.564Z,16.40
2022-09-04T05:49:33.737Z,16.46
2022-09-04T05:50:33.780Z,16.53
2022-09-04T05:51:36.332Z,16.60
2022-09-04T05:52:33.987Z,16.67
2022-09-04T05:53:34.077Z,16.75
2022-09-04T05:54:34.367Z,16.83
2022-09-04T05:55:34.557Z,16.93
2022-09-04T05:56:34.526Z,17.03
2022-09-04T05:57:34.596Z,17.13
2022-09-04T05:58:34.708Z,17.24
2022-09-04T05:59:34.846Z,17.35
2022-09-04T06:00:35.035Z,17.46
2022-09-04T06:01:35.125Z,17.56
2022-09-04T06:02:35.263Z,17.66
2022-09-04T06:03:35.353Z,17.76
2022-09-04T06:04:35.505Z,17.87
2022-09-04T06:05:35.676Z,17.96
2022-09-04T06:06:35.728Z,18.04
2022-09-04T06:07:35.839Z,18.09
2022-09-04T06:08:35.955Z,18.13
2022-09-04T06:09:36.054Z,18.15
2022-09-04T06:10:36.302Z,18.19
2022-09-04T06:11:36.455Z,18.25
2022-09-04T06:12:36.444Z,18.33
2022-09-04T06:13:36.563Z,18.42
2022-09-04T06:14:36.654Z,18.52
2022-09-04T06:15:36.982Z,18.63
2022-09-04T06:16:37.094Z,18.74
2022-09-04T06:17:37.093Z,18.85
2022-09-04T06:18:37.203Z,18.94
2022-09-04T06:19:37.305Z,19.04
2022-09-04T06:20:37.666Z,19.15
2022-09-04T06:21:37.623Z,19.26
2022-09-04T06:22:37.692Z,19.36
2022-09-04T06:23:37.833Z,19.47
2022-09-04T06:24:38.003Z,19.57
2022-09-04T06:25:38.133Z,19.66
2022-09-04T06:26:38.244Z,19.75
2022-09-04T06:27:38.340Z,19.83
2022-09-04T06:28:38.474Z,19.90
2022-09-04T06:29:38.621Z,19.97
2022-09-04T06:30:39.001Z,20.04
2022-09-04T06:31:38.964Z,20.09
2022-09-04T06:32:38.992Z,20.14
2022-09-04T06:33:39.183Z,20.21
2022-09-04T06:34:39.281Z,20.27
2022-09-04T06:35:39.499Z,20.34
2022-09-04T06:36:39.488Z,20.40
2022-09-04T06:37:39.573Z,20.46
2022-09-04T06:38:39.758Z,20.52
2022-09-04T06:39:39.875Z,20.59
2022-09-04T06:40:40.058Z,20.64
2022-09-04T06:41:40.158Z,20.69
2022-09-04T06:42:40.254Z,20.75
2022-09-04T06:43:40.362Z,20.82
2022-09-04T06:44:40.510Z,20.87
2022-09-04T06:45:40.691Z,20.93
2022-09-04T06:46:40.811Z,21.00
2022-09-04T06:47:40.889Z,21.09
2022-09-04T06:48:40.989Z,21.20
2022-09-04T06:49:41.319Z,21.31
2022-09-04T06:50:41.262Z,21.41
2022-09-04T06:51:41.378Z,21.51
2022-09-04T06:52:41.439Z,21.60
2022-09-04T06:53:41.574Z,21.69
2022-09-04T06:54:41.679Z,21.77
2022-09-04T06:55:41.910Z,21.86
2022-09-04T06:56:42.012Z,21.96
2022-09-04T06:57:42.073Z,22.07
2022-09-04T06:58:42.172Z,22.17
2022-09-04T06:59:42.291Z,22.28
2022-09-04T07:00:42.501Z,22.38
2022-09-04T07:01:42.576Z,22.46
2022-09-04T07:02:42.703Z,22.52
2022-09-04T07:03:42.765Z,22.55
2022-09-04T07:04:42.848Z,22.60
2022-09-04T07:05:43.299Z,22.68
2022-09-04T07:06:43.160Z,22.76
2022-09-04T07:07:43.286Z,22.79
2022-09-04T07:08:43.387Z,22.80
2022-09-04T07:09:43.483Z,22.84
2022-09-04T07:10:43.648Z,22.89
2022-09-04T07:11:43.870Z,22.97
2022-09-04T07:12:43.810Z,23.00
2022-09-04T07:13:43.929Z,23.00
2022-09-04T07:14:44.083Z,23.00
2022-09-04T07:15:44.286Z,22.99
2022-09-04T07:16:44.325Z,22.97
2022-09-04T07:17:44.493Z,23.00
2022-09-04T07:18:44.547Z,23.09
2022-09-04T07:19:44.663Z,23.17
2022-09-04T07:20:44.805Z,23.18
2022-09-04T07:21:45.057Z,23.14
2022-09-04T07:22:45.008Z,23.14
2022-09-04T07:23:45.112Z,23.13
2022-09-04T07:24:45.266Z,23.12
2022-09-04T07:25:45.388Z,23.10
2022-09-04T07:26:45.618Z,23.08
2022-09-04T07:27:45.626Z,23.07
2022-09-04T07:28:45.736Z,23.09
2022-09-04T07:29:45.846Z,23.11
2022-09-04T07:30:45.947Z,23.17
2022-09-04T07:31:46.255Z,23.27
2022-09-04T07:32:46.266Z,23.40
2022-09-04T07:33:46.326Z,23.52
2022-09-04T07:34:46.438Z,23.63
2022-09-04T07:35:46.557Z,23.75
2022-09-04T07:36:47.018Z,23.89
2022-09-04T07:37:46.794Z,24.02
2022-09-04T07:38:50.899Z,24.13
2022-09-04T07:39:48.161Z,24.17
2022-09-04T07:40:47.206Z,24.15
2022-09-04T07:41:47.455Z,24.16
2022-09-04T07:42:47.437Z,24.24
2022-09-04T07:43:50.254Z,24.36
2022-09-04T07:44:48.714Z,24.50
2022-09-04T07:45:47.942Z,24.57
2022-09-04T07:46:48.056Z,24.61
2022-09-04T07:47:48.209Z,24.67
2022-09-04T07:48:48.213Z,24.71
2022-09-04T07:49:48.355Z,24.66
2022-09-04T07:50:48.475Z,24.58
2022-09-04T07:51:48.605Z,24.54
2022-09-04T07:52:48.715Z,24.54
2022-09-04T07:53:48.846Z,24.60
2022-09-04T07:54:48.955Z,24.63
2022-09-04T07:55:49.088Z,24.58
2022-09-04T07:56:49.291Z,24.47
2022-09-04T07:57:49.335Z,24.41
2022-09-04T07:58:49.438Z,24.44
2022-09-04T07:59:49.604Z,24.47
2022-09-04T08:00:49.826Z,24.42
2022-09-04T08:01:49.917Z,24.30
2022-09-04T08:02:50.004Z,24.18
2022-09-04T08:03:54.674Z,24.07
2022-09-04T08:04:50.231Z,23.95
2022-09-04T08:05:50.298Z,23.88
2022-09-04T08:06:50.515Z,23.87
2022-09-04T08:07:50.596Z,23.92
2022-09-04T08:08:50.695Z,23.97
2022-09-04T08:09:50.877Z,24.02
2022-09-04T08:10:50.994Z,24.12
2022-09-04T08:11:51.094Z,24.23
2022-09-04T08:12:51.433Z,24.30
2022-09-04T08:13:51.314Z,24.28
2022-09-04T08:14:51.463Z,24.16
2022-09-04T08:15:51.647Z,23.97
2022-09-04T08:16:53.256Z,23.75
2022-09-04T08:17:52.003Z,23.57
2022-09-04T08:18:52.071Z,23.52
2022-09-04T08:19:52.113Z,23.55
2022-09-04T08:20:52.263Z,23.61
2022-09-04T08:21:52.379Z,23.63
2022-09-04T08:22:52.486Z,23.63
2022-09-04T08:23:52.693Z,23.62
2022-09-04T08:24:52.756Z,23.61
2022-09-04T08:25:52.873Z,23.65
2022-09-04T08:26:52.964Z,23.75
2022-09-04T08:27:53.133Z,23.85
2022-09-04T08:28:53.290Z,23.94
2022-09-04T08:29:53.414Z,24.05
2022-09-04T08:30:53.578Z,24.20
2022-09-04T08:31:53.635Z,24.39
2022-09-04T08:32:53.747Z,24.54
2022-09-04T08:33:53.931Z,24.63
2022-09-04T08:34:54.042Z,24.62
2022-09-04T08:35:54.114Z,24.54
2022-09-04T08:36:54.213Z,24.42
2022-09-04T08:37:54.372Z,24.30
2022-09-04T08:38:54.474Z,24.26
2022-09-04T08:39:54.848Z,24.33
2022-09-04T08:40:54.771Z,24.42
2022-09-04T08:41:54.875Z,24.51
2022-09-04T08:42:54.989Z,24.61
2022-09-04T08:43:55.101Z,24.71
2022-09-04T08:44:55.242Z,24.72
2022-09-04T08:45:55.430Z,24.71
2022-09-04T08:46:55.450Z,24.67
2022-09-04T08:47:55.591Z,24.64
2022-09-04T08:48:55.729Z,24.66
2022-09-04T08:49:56.081Z,24.74
2022-09-04T08:50:56.042Z,24.84
2022-09-04T08:51:56.121Z,24.87
2022-09-04T08:52:58.673Z,24.87
2022-09-04T08:53:56.380Z,24.91
2022-09-04T08:54:56.612Z,25.01
2022-09-04T08:55:56.671Z,25.02
2022-09-04T08:56:56.770Z,24.93
2022-09-04T08:57:56.924Z,24.87
2022-09-04T08:58:57.080Z,24.82
2022-09-04T08:59:57.350Z,24.82
2022-09-04T09:00:57.353Z,24.89
2022-09-04T09:01:57.390Z,24.99
2022-09-04T09:02:57.571Z,25.07
2022-09-04T09:03:57.679Z,25.07
2022-09-04T09:04:57.858Z,25.00
2022-09-04T09:05:58.035Z,24.96
2022-09-04T09:06:58.018Z,24.96
2022-09-04T09:07:58.179Z,24.94
2022-09-04T09:08:58.289Z,24.91
2022-09-04T09:09:58.459Z,24.92
2022-09-04T09:10:58.509Z,24.96
2022-09-04T09:11:58.610Z,25.07
2022-09-04T09:12:58.759Z,25.26
2022-09-04T09:14:01.936Z,25.48
2022-09-04T09:14:59.082Z,25.65
2022-09-04T09:15:59.077Z,25.78
2022-09-04T09:16:59.269Z,25.85
2022-09-04T09:17:59.368Z,25.92
2022-09-04T09:18:59.528Z,25.95
2022-09-04T09:19:59.778Z,25.95
2022-09-04T09:20:59.775Z,25.86
2022-09-04T09:21:59.868Z,25.69
2022-09-04T09:23:00.028Z,25.59
2022-09-04T09:24:00.256Z,25.59
2022-09-04T09:25:00.245Z,25.61
2022-09-04T09:26:00.398Z,25.61
2022-09-04T09:27:00.505Z,25.57
2022-09-04T09:28:00.598Z,25.53
2022-09-04T09:29:00.925Z,25.55
2022-09-04T09:30:00.876Z,25.59
2022-09-04T09:31:00.999Z,25.61
2022-09-04T09:32:03.737Z,25.67
2022-09-04T09:33:01.216Z,25.78
2022-09-04T09:34:01.587Z,25.89
2022-09-04T09:35:01.430Z,25.94
2022-09-04T09:36:01.613Z,25.94
2022-09-04T09:37:01.657Z,25.98
2022-09-04T09:38:04.486Z,26.03
2022-09-04T09:39:02.046Z,26.09
2022-09-04T09:40:02.150Z,26.12
2022-09-04T09:41:02.193Z,26.17
2022-09-04T09:42:02.460Z,26.30
2022-09-04T09:43:02.396Z,26.40
2022-09-04T09:44:02.686Z,26.45
2022-09-04T09:45:02.687Z,26.42
2022-09-04T09:46:02.810Z,26.39
2022-09-04T09:47:02.944Z,26.49
2022-09-04T09:48:03.055Z,26.59
2022-09-04T09:49:03.245Z,26.63
2022-09-04T09:50:03.295Z,26.54
2022-09-04T09:51:03.403Z,26.46
2022-09-04T09:52:03.504Z,26.49
2022-09-04T09:53:03.615Z,26.49
2022-09-04T09:54:03.954Z,26.40
2022-09-04T09:55:03.844Z,26.27
2022-09-04T09:56:03.973Z,26.09
2022-09-04T09:57:04.075Z,25.88
2022-09-04T09:58:04.183Z,25.75
2022-09-04T09:59:04.366Z,25.75
2022-09-04T10:00:04.402Z,25.83
2022-09-04T10:01:08.308Z,25.96
2022-09-04T10:02:04.686Z,26.06
2022-09-04T10:03:04.763Z,26.09
2022-09-04T10:04:04.982Z,26.15
2022-09-04T10:05:05.033Z,26.24
2022-09-04T10:06:05.213Z,26.31
2022-09-04T10:07:05.266Z,26.40
2022-09-04T10:08:05.422Z,26.46
2022-09-04T10:09:09.273Z,26.47
2022-09-04T10:10:05.643Z,26.50
2022-09-04T10:11:05.912Z,26.55
2022-09-04T10:12:05.912Z,26.50
2022-09-04T10:13:06.031Z,26.41
2022-09-04T10:14:06.130Z,26.38
2022-09-04T10:15:06.311Z,26.39
2022-09-04T10:16:06.480Z,26.36
2022-09-04T10:17:06.531Z,26.29
2022-09-04T10:18:06.634Z,26.24
2022-09-04T10:19:06.840Z,26.24
2022-09-04T10:20:06.885Z,26.27
2022-09-04T10:21:07.119Z,26.29
2022-09-04T10:22:07.271Z,26.22
2022-09-04T10:23:07.210Z,26.03
2022-09-04T10:24:07.380Z,25.85
2022-09-04T10:25:07.477Z,25.77
2022-09-04T10:26:07.740Z,25.74
2022-09-04T10:27:07.680Z,25.77
2022-09-04T10:28:07.819Z,25.80
2022-09-04T10:29:07.970Z,25.82
2022-09-04T10:30:08.120Z,25.88
2022-09-04T10:31:08.474Z,25.93
2022-09-04T10:32:08.389Z,26.00
2022-09-04T10:33:11.684Z,26.06
2022-09-04T10:34:08.651Z,26.06
2022-09-04T10:35:08.789Z,26.03
2022-09-04T10:36:09.049Z,25.95
2022-09-04T10:37:09.044Z,25.79
2022-09-04T10:38:09.260Z,25.56
2022-09-04T10:39:09.300Z,25.35
2022-09-04T10:40:09.581Z,25.21
2022-09-04T10:41:09.610Z,25.17
2022-09-04T10:42:09.719Z,25.25
2022-09-04T10:43:10.105Z,25.40
2022-09-04T10:44:09.948Z,25.53
2022-09-04T10:45:10.068Z,25.59
2022-09-04T10:46:10.211Z,25.59
2022-09-04T10:47:11.307Z,25.54
2022-09-04T10:48:10.488Z,25.48
2022-09-04T10:49:10.542Z,25.50
2022-09-04T10:50:10.632Z,25.64
2022-09-04T10:51:10.780Z,25.88
2022-09-04T10:52:10.937Z,26.19
2022-09-04T10:53:11.058Z,26.51
2022-09-04T10:54:11.237Z,26.72
2022-09-04T10:55:11.278Z,26.83
2022-09-04T10:56:11.438Z,26.85
2022-09-04T10:57:11.547Z,26.78
2022-09-04T10:58:11.818Z,26.68
2022-09-04T10:59:11.755Z,26.57
2022-09-04T11:00:12.038Z,26.48
2022-09-04T11:01:12.163Z,26.46
2022-09-04T11:02:12.234Z,26.46
2022-09-04T11:03:12.317Z,26.44
2022-09-04T11:04:12.437Z,26.39
2022-09-04T11:05:12.689Z,26.29
2022-09-04T11:06:12.720Z,26.18
2022-09-04T11:07:12.799Z,26.13
2022-09-04T11:08:12.912Z,26.21
2022-09-04T11:09:13.038Z,26.38
2022-09-04T11:10:13.181Z,26.55
2022-09-04T11:11:13.249Z,26.61
2022-09-04T11:12:13.365Z,26.54
2022-09-04T11:13:13.458Z,26.48
2022-09-04T11:14:13.659Z,26.51
2022-09-04T11:15:13.714Z,26.59
2022-09-04T11:16:13.867Z,26.69
2022-09-04T11:17:13.925Z,26.83
2022-09-04T11:18:14.035Z,27.00
2022-09-04T11:19:14.215Z,27.16
2022-09-04T11:20:18.265Z,27.28
2022-09-04T11:21:14.442Z,27.34
2022-09-04T11:22:14.555Z,27.38
2022-09-04T11:23:14.665Z,27.38
2022-09-04T11:24:14.806Z,27.29
2022-09-04T11:25:15.006Z,27.18
2022-09-04T11:26:15.127Z,27.16
2022-09-04T11:27:15.185Z,27.18
2022-09-04T11:28:15.856Z,27.23
2022-09-04T11:29:15.425Z,27.24
2022-09-04T11:30:15.766Z,27.26
2022-09-04T11:31:15.770Z,27.35
2022-09-04T11:32:15.867Z,27.48
2022-09-04T11:33:15.966Z,27.60
2022-09-04T11:34:16.082Z,27.68
2022-09-04T11:35:16.306Z,27.74
2022-09-04T11:36:16.355Z,27.73
2022-09-04T11:37:16.419Z,27.66
2022-09-04T11:38:16.528Z,27.58
2022-09-04T11:39:16.655Z,27.45
2022-09-04T11:40:16.927Z,27.35
2022-09-04T11:41:16.874Z,27.34
2022-09-04T11:42:16.984Z,27.33
2022-09-04T11:43:17.074Z,27.29
2022-09-04T11:44:17.205Z,27.18
2022-09-04T11:45:17.492Z,27.05
2022-09-04T11:46:17.562Z,26.93
2022-09-04T11:47:17.604Z,26.85
2022-09-04T11:48:17.755Z,26.83
2022-09-04T11:49:17.904Z,26.91
2022-09-04T11:50:18.062Z,27.03
2022-09-04T11:51:18.133Z,27.10
2022-09-04T11:52:18.393Z,27.12
2022-09-04T11:53:18.331Z,27.18
2022-09-04T11:54:18.494Z,27.28
2022-09-04T11:55:18.603Z,27.41
2022-09-04T11:56:18.764Z,27.47
2022-09-04T11:57:18.952Z,27.42
2022-09-04T11:58:18.952Z,27.36
2022-09-04T11:59:19.042Z,27.30
2022-09-04T12:00:19.182Z,27.20
2022-09-04T12:01:19.351Z,27.08
2022-09-04T12:02:19.570Z,27.04
2022-09-04T12:03:19.581Z,27.05
2022-09-04T12:04:19.745Z,27.06
2022-09-04T12:05:19.854Z,27.05
2022-09-04T12:06:20.002Z,27.01
2022-09-04T12:07:20.216Z,26.95
2022-09-04T12:08:20.415Z,26.89
2022-09-04T12:09:20.334Z,26.84
2022-09-04T12:10:20.422Z,26.80
2022-09-04T12:11:20.592Z,26.74
2022-09-04T12:12:20.912Z,26.63
2022-09-04T12:13:20.783Z,26.52
2022-09-04T12:14:21.092Z,26.45
2022-09-04T12:15:21.101Z,26.43
2022-09-04T12:16:21.238Z,26.44
2022-09-04T12:17:21.301Z,26.47
2022-09-04T12:18:21.460Z,26.54
2022-09-04T12:19:21.653Z,26.67
2022-09-04T12:20:21.709Z,26.82
2022-09-04T12:21:21.822Z,26.97
2022-09-04T12:22:21.931Z,27.05
2022-09-04T12:23:22.125Z,27.06
2022-09-04T12:24:22.280Z,27.05
2022-09-04T12:25:22.352Z,27.05
2022-09-04T12:26:22.399Z,27.04
2022-09-04T12:27:22.518Z,27.08
2022-09-04T12:28:22.611Z,27.11
2022-09-04T12:29:22.900Z,27.10
2022-09-04T12:30:22.971Z,27.04
2022-09-04T12:31:23.085Z,26.99
2022-09-04T12:32:23.182Z,27.02
2022-09-04T12:33:23.293Z,27.13
2022-09-04T12:34:23.528Z,27.30
2022-09-04T12:35:23.512Z,27.50
2022-09-04T12:36:23.826Z,27.66
2022-09-04T12:37:23.763Z,27.74
2022-09-04T12:38:23.881Z,27.71
2022-09-04T12:39:24.198Z,27.56
2022-09-04T12:40:24.180Z,27.42
2022-09-04T12:41:24.281Z,27.38
2022-09-04T12:42:24.506Z,27.44
2022-09-04T12:43:24.653Z,27.57
2022-09-04T12:44:24.641Z,27.74
2022-09-04T12:45:24.790Z,27.92
2022-09-04T12:46:24.910Z,28.12
2022-09-04T12:47:25.114Z,28.34
2022-09-04T12:48:25.080Z,28.56
2022-09-04T12:49:25.238Z,28.77
2022-09-04T12:50:25.350Z,28.92
2022-09-04T12:51:25.450Z,28.99
2022-09-04T12:52:25.740Z,29.02
2022-09-04T12:53:26.139Z,29.09
2022-09-04T12:54:25.890Z,29.13